Sedalia, Missouri
Current Conditions -  °F | °C
As of 3:21 AM on Friday 19 Dec 2014 (Local Time) from KDMO Reporting Station
Haze Haze  
Wind Chill: 33°   Ceiling: 200
Heat Index: 33°   Visibility: 2mi
Dew Point: 32°   Wind: 3mph
Humidity: 96%   Direction: 90°E
Pressure: 30.25"   Gusts: NA
Location:  38.71°N, 93.23°W
Report Text: KDMO 190921Z AUTO 09003KT 2SM BR OVC002 01/00 A3025 RMK AO2 T00060000
Loading
Personal Weather Stations






























Interactive Weather Map New forecast layout! Learn more

10-Day Weather Forecast

Advertisements
Track Severe Weather on mobile